Hana, Hawaii
Current Conditions -  °F | °C
As of 12:54 PM on Tuesday 27 Jan 2015 (Local Time) from PHOG Reporting Station
Scattered Clouds Scattered Clouds  
Wind Chill: 80°   Ceiling: Unl
Heat Index: 81°   Visibility: 10mi
Dew Point: 61°   Wind: 16mph
Humidity: 52%   Direction: 70°ENE
Pressure: 29.92"   Gusts: 24mph
Location:  20.75°N, 155.98°W
Report Text: PHOG 272254Z 07014G21KT 10SM FEW040 SCT060 27/16 A2992 RMK AO2 SLP136 T02670161 $
Loading
Personal Weather Stations






























Interactive Weather Map New forecast layout! Learn more

10-Day Weather Forecast

Advertisements
Track Severe Weather on mobile